sensor_id;sensor_type;location;lat;lon;timestamp;temperature;humidity
16076;DHT22;8142;48.242;11.644;2023-01-29T00:01:53;2.00;99.90
16076;DHT22;8142;48.242;11.644;2023-01-29T00:04:19;2.00;99.90
16076;DHT22;8142;48.242;11.644;2023-01-29T00:06:45;2.00;99.90
16076;DHT22;8142;48.242;11.644;2023-01-29T00:09:12;2.00;99.90
16076;DHT22;8142;48.242;11.644;2023-01-29T00:11:39;2.00;99.90
16076;DHT22;8142;48.242;11.644;2023-01-29T00:14:06;2.00;99.90
16076;DHT22;8142;48.242;11.644;2023-01-29T00:16:32;2.00;99.90
16076;DHT22;8142;48.242;11.644;2023-01-29T00:19:00;1.90;99.90
16076;DHT22;8142;48.242;11.644;2023-01-29T00:21:27;1.90;99.90
16076;DHT22;8142;48.242;11.644;2023-01-29T00:23:55;1.90;99.90
16076;DHT22;8142;48.242;11.644;2023-01-29T00:26:22;1.90;99.90
16076;DHT22;8142;48.242;11.644;2023-01-29T00:28:48;1.80;99.90
16076;DHT22;8142;48.242;11.644;2023-01-29T00:31:20;1.80;99.90
16076;DHT22;8142;48.242;11.644;2023-01-29T00:33:47;1.80;99.90
16076;DHT22;8142;48.242;11.644;2023-01-29T00:36:15;1.70;99.90
16076;DHT22;8142;48.242;11.644;2023-01-29T00:38:42;1.70;99.90
16076;DHT22;8142;48.242;11.644;2023-01-29T00:41:13;1.70;99.90
16076;DHT22;8142;48.242;11.644;2023-01-29T00:43:59;1.60;99.90
16076;DHT22;8142;48.242;11.644;2023-01-29T00:46:44;1.60;99.90
16076;DHT22;8142;48.242;11.644;2023-01-29T00:49:10;1.60;99.90
16076;DHT22;8142;48.242;11.644;2023-01-29T00:51:37;1.60;99.90
16076;DHT22;8142;48.242;11.644;2023-01-29T00:54:04;1.60;99.90
16076;DHT22;8142;48.242;11.644;2023-01-29T00:56:34;1.50;99.90
16076;DHT22;8142;48.242;11.644;2023-01-29T00:59:00;1.50;99.90
16076;DHT22;8142;48.242;11.644;2023-01-29T01:01:26;1.50;99.90
16076;DHT22;8142;48.242;11.644;2023-01-29T01:04:11;1.50;99.90
16076;DHT22;8142;48.242;11.644;2023-01-29T01:06:38;1.50;99.90
16076;DHT22;8142;48.242;11.644;2023-01-29T01:09:04;1.50;99.90
16076;DHT22;8142;48.242;11.644;2023-01-29T01:11:49;1.50;99.90
16076;DHT22;8142;48.242;11.644;2023-01-29T01:14:17;1.50;99.90
16076;DHT22;8142;48.242;11.644;2023-01-29T01:16:44;1.50;99.90
16076;DHT22;8142;48.242;11.644;2023-01-29T01:19:11;1.60;99.90
16076;DHT22;8142;48.242;11.644;2023-01-29T01:21:39;1.60;99.90
16076;DHT22;8142;48.242;11.644;2023-01-29T01:24:05;1.70;99.90
16076;DHT22;8142;48.242;11.644;2023-01-29T01:26:31;1.70;99.90
16076;DHT22;8142;48.242;11.644;2023-01-29T01:28:58;1.80;99.90
16076;DHT22;8142;48.242;11.644;2023-01-29T01:31:24;1.70;99.90
16076;DHT22;8142;48.242;11.644;2023-01-29T01:33:50;1.70;99.90
16076;DHT22;8142;48.242;11.644;2023-01-29T01:36:18;1.70;99.90
16076;DHT22;8142;48.242;11.644;2023-01-29T01:38:45;1.70;99.90
16076;DHT22;8142;48.242;11.644;2023-01-29T01:41:21;1.70;99.90
16076;DHT22;8142;48.242;11.644;2023-01-29T01:43:56;1.70;99.90
16076;DHT22;8142;48.242;11.644;2023-01-29T01:46:31;1.70;99.90
16076;DHT22;8142;48.242;11.644;2023-01-29T01:51:32;1.70;99.90
16076;DHT22;8142;48.242;11.644;2023-01-29T01:54:27;1.60;99.90
16076;DHT22;8142;48.242;11.644;2023-01-29T01:57:09;1.60;99.90
16076;DHT22;8142;48.242;11.644;2023-01-29T01:59:47;1.60;99.90
16076;DHT22;8142;48.242;11.644;2023-01-29T02:02:15;1.60;99.90
16076;DHT22;8142;48.242;11.644;2023-01-29T02:05:01;1.70;99.90
16076;DHT22;8142;48.242;11.644;2023-01-29T02:07:47;1.70;99.90
16076;DHT22;8142;48.242;11.644;2023-01-29T02:10:45;1.70;99.90
16076;DHT22;8142;48.242;11.644;2023-01-29T02:13:11;1.80;99.90
16076;DHT22;8142;48.242;11.644;2023-01-29T02:15:41;1.80;99.90
16076;DHT22;8142;48.242;11.644;2023-01-29T02:18:18;1.80;99.90
16076;DHT22;8142;48.242;11.644;2023-01-29T02:29:03;1.90;99.90
16076;DHT22;8142;48.242;11.644;2023-01-29T02:34:46;2.00;99.90
16076;DHT22;8142;48.242;11.644;2023-01-29T02:37:42;2.00;99.90
16076;DHT22;8142;48.242;11.644;2023-01-29T02:40:57;2.00;99.90
16076;DHT22;8142;48.242;11.644;2023-01-29T02:45:59;2.10;99.90
16076;DHT22;8142;48.242;11.644;2023-01-29T02:48:34;2.10;99.90
16076;DHT22;8142;48.242;11.644;2023-01-29T02:51:18;2.10;99.90
16076;DHT22;8142;48.242;11.644;2023-01-29T02:56:37;2.10;99.90
16076;DHT22;8142;48.242;11.644;2023-01-29T02:59:12;2.10;99.90
16076;DHT22;8142;48.242;11.644;2023-01-29T03:02:02;2.30;99.90
16076;DHT22;8142;48.242;11.644;2023-01-29T03:04:32;2.10;99.90
16076;DHT22;8142;48.242;11.644;2023-01-29T03:07:03;2.10;99.90
16076;DHT22;8142;48.242;11.644;2023-01-29T03:12:03;2.10;99.90
16076;DHT22;8142;48.242;11.644;2023-01-29T03:14:47;2.00;99.90
16076;DHT22;8142;48.242;11.644;2023-01-29T03:20:36;2.10;99.90
16076;DHT22;8142;48.242;11.644;2023-01-29T03:23:12;2.10;99.90
16076;DHT22;8142;48.242;11.644;2023-01-29T03:25:40;2.10;99.90
16076;DHT22;8142;48.242;11.644;2023-01-29T03:28:27;2.10;99.90
16076;DHT22;8142;48.242;11.644;2023-01-29T03:31:13;2.20;99.90
16076;DHT22;8142;48.242;11.644;2023-01-29T03:34:15;2.00;99.90
16076;DHT22;8142;48.242;11.644;2023-01-29T03:36:57;2.00;99.90
16076;DHT22;8142;48.242;11.644;2023-01-29T03:39:26;2.00;99.90
16076;DHT22;8142;48.242;11.644;2023-01-29T03:55:08;1.90;99.90
16076;DHT22;8142;48.242;11.644;2023-01-29T03:57:46;1.90;99.90
16076;DHT22;8142;48.242;11.644;2023-01-29T04:00:18;2.00;99.90
16076;DHT22;8142;48.242;11.644;2023-01-29T04:05:21;2.00;99.90
16076;DHT22;8142;48.242;11.644;2023-01-29T04:07:55;2.00;99.90
16076;DHT22;8142;48.242;11.644;2023-01-29T04:10:26;2.10;99.90
16076;DHT22;8142;48.242;11.644;2023-01-29T04:13:01;2.10;99.90
16076;DHT22;8142;48.242;11.644;2023-01-29T04:15:35;2.10;99.90
16076;DHT22;8142;48.242;11.644;2023-01-29T04:18:04;2.10;99.90
16076;DHT22;8142;48.242;11.644;2023-01-29T04:20:30;2.10;99.90
16076;DHT22;8142;48.242;11.644;2023-01-29T04:22:56;2.10;99.90
16076;DHT22;8142;48.242;11.644;2023-01-29T04:25:25;2.10;99.90
16076;DHT22;8142;48.242;11.644;2023-01-29T04:28:04;2.20;99.90
16076;DHT22;8142;48.242;11.644;2023-01-29T04:33:16;2.20;99.90
16076;DHT22;8142;48.242;11.644;2023-01-29T04:41:45;2.20;99.90
16076;DHT22;8142;48.242;11.644;2023-01-29T04:44:37;2.20;99.90
16076;DHT22;8142;48.242;11.644;2023-01-29T04:47:09;2.20;99.90
16076;DHT22;8142;48.242;11.644;2023-01-29T04:49:44;2.10;99.90
16076;DHT22;8142;48.242;11.644;2023-01-29T04:57:57;2.20;99.90
16076;DHT22;8142;48.242;11.644;2023-01-29T05:00:34;2.10;99.90
16076;DHT22;8142;48.242;11.644;2023-01-29T05:03:02;2.10;99.90
16076;DHT22;8142;48.242;11.644;2023-01-29T05:05:30;2.10;99.90
16076;DHT22;8142;48.242;11.644;2023-01-29T05:07:57;2.00;99.90
16076;DHT22;8142;48.242;11.644;2023-01-29T05:10:25;1.80;99.90
16076;DHT22;8142;48.242;11.644;2023-01-29T05:12:59;1.70;99.90
16076;DHT22;8142;48.242;11.644;2023-01-29T05:15:30;1.50;99.90
16076;DHT22;8142;48.242;11.644;2023-01-29T05:17:58;1.30;99.90
16076;DHT22;8142;48.242;11.644;2023-01-29T05:20:32;1.20;99.90
16076;DHT22;8142;48.242;11.644;2023-01-29T05:22:59;1.00;99.90
16076;DHT22;8142;48.242;11.644;2023-01-29T05:25:28;0.90;99.90
16076;DHT22;8142;48.242;11.644;2023-01-29T05:27:55;0.80;99.90
16076;DHT22;8142;48.242;11.644;2023-01-29T05:30:39;0.80;99.90
16076;DHT22;8142;48.242;11.644;2023-01-29T05:33:18;0.70;99.90
16076;DHT22;8142;48.242;11.644;2023-01-29T05:35:45;0.60;99.90
16076;DHT22;8142;48.242;11.644;2023-01-29T05:38:12;0.60;99.90
16076;DHT22;8142;48.242;11.644;2023-01-29T05:40:38;0.60;99.90
16076;DHT22;8142;48.242;11.644;2023-01-29T05:43:05;0.50;99.90
16076;DHT22;8142;48.242;11.644;2023-01-29T05:45:32;0.50;99.90
16076;DHT22;8142;48.242;11.644;2023-01-29T05:47:58;0.50;99.90
16076;DHT22;8142;48.242;11.644;2023-01-29T05:50:25;0.50;99.90
16076;DHT22;8142;48.242;11.644;2023-01-29T05:52:58;0.40;99.90
16076;DHT22;8142;48.242;11.644;2023-01-29T05:55:25;0.40;99.90
16076;DHT22;8142;48.242;11.644;2023-01-29T05:57:52;0.30;99.90
16076;DHT22;8142;48.242;11.644;2023-01-29T06:00:18;0.30;99.90
16076;DHT22;8142;48.242;11.644;2023-01-29T06:02:44;0.30;99.90
16076;DHT22;8142;48.242;11.644;2023-01-29T06:05:11;0.20;99.90
16076;DHT22;8142;48.242;11.644;2023-01-29T06:07:37;0.20;99.90
16076;DHT22;8142;48.242;11.644;2023-01-29T06:10:05;0.20;99.90
16076;DHT22;8142;48.242;11.644;2023-01-29T06:12:31;0.10;99.90
16076;DHT22;8142;48.242;11.644;2023-01-29T06:14:57;0.20;99.90
16076;DHT22;8142;48.242;11.644;2023-01-29T06:17:24;0.20;99.90
16076;DHT22;8142;48.242;11.644;2023-01-29T06:19:50;0.20;99.90
16076;DHT22;8142;48.242;11.644;2023-01-29T06:22:16;0.20;99.90
16076;DHT22;8142;48.242;11.644;2023-01-29T06:24:42;0.20;99.90
16076;DHT22;8142;48.242;11.644;2023-01-29T06:27:08;0.20;99.90
16076;DHT22;8142;48.242;11.644;2023-01-29T06:29:34;0.10;99.90
16076;DHT22;8142;48.242;11.644;2023-01-29T06:32:01;0.10;99.90
16076;DHT22;8142;48.242;11.644;2023-01-29T06:34:27;0.10;99.90
16076;DHT22;8142;48.242;11.644;2023-01-29T06:36:53;0.10;99.90
16076;DHT22;8142;48.242;11.644;2023-01-29T06:39:19;0.10;99.90
16076;DHT22;8142;48.242;11.644;2023-01-29T06:41:46;0.10;99.90
16076;DHT22;8142;48.242;11.644;2023-01-29T06:44:12;0.10;99.90
16076;DHT22;8142;48.242;11.644;2023-01-29T06:46:38;0.10;99.90
16076;DHT22;8142;48.242;11.644;2023-01-29T06:49:04;0.10;99.90
16076;DHT22;8142;48.242;11.644;2023-01-29T06:51:31;0.10;99.90
16076;DHT22;8142;48.242;11.644;2023-01-29T06:53:57;0.10;99.90
16076;DHT22;8142;48.242;11.644;2023-01-29T06:56:23;0.20;99.90
16076;DHT22;8142;48.242;11.644;2023-01-29T06:58:49;0.20;99.90
16076;DHT22;8142;48.242;11.644;2023-01-29T07:01:16;0.30;99.90
16076;DHT22;8142;48.242;11.644;2023-01-29T07:03:42;0.40;99.90
16076;DHT22;8142;48.242;11.644;2023-01-29T07:06:08;0.50;99.90
16076;DHT22;8142;48.242;11.644;2023-01-29T07:08:37;0.60;99.90
16076;DHT22;8142;48.242;11.644;2023-01-29T07:11:03;0.70;99.90
16076;DHT22;8142;48.242;11.644;2023-01-29T07:13:29;0.80;99.90
16076;DHT22;8142;48.242;11.644;2023-01-29T07:16:00;0.90;99.90
16076;DHT22;8142;48.242;11.644;2023-01-29T07:18:28;1.00;99.90
16076;DHT22;8142;48.242;11.644;2023-01-29T07:20:54;1.00;99.90
16076;DHT22;8142;48.242;11.644;2023-01-29T07:23:21;1.10;99.90
16076;DHT22;8142;48.242;11.644;2023-01-29T07:25:48;1.20;99.90
16076;DHT22;8142;48.242;11.644;2023-01-29T07:28:18;1.30;99.90
16076;DHT22;8142;48.242;11.644;2023-01-29T07:30:45;1.30;99.90
16076;DHT22;8142;48.242;11.644;2023-01-29T07:33:11;1.40;99.90
16076;DHT22;8142;48.242;11.644;2023-01-29T07:35:40;1.40;99.90
16076;DHT22;8142;48.242;11.644;2023-01-29T07:38:10;1.50;99.90
16076;DHT22;8142;48.242;11.644;2023-01-29T07:40:37;1.60;99.90
16076;DHT22;8142;48.242;11.644;2023-01-29T07:43:05;1.60;99.90
16076;DHT22;8142;48.242;11.644;2023-01-29T07:45:34;1.60;99.90
16076;DHT22;8142;48.242;11.644;2023-01-29T07:48:01;1.70;99.90
16076;DHT22;8142;48.242;11.644;2023-01-29T07:50:29;1.70;99.90
16076;DHT22;8142;48.242;11.644;2023-01-29T07:52:55;1.70;99.90
16076;DHT22;8142;48.242;11.644;2023-01-29T07:55:22;1.80;99.90
16076;DHT22;8142;48.242;11.644;2023-01-29T07:58:00;1.80;99.90
16076;DHT22;8142;48.242;11.644;2023-01-29T08:00:26;1.80;99.90
16076;DHT22;8142;48.242;11.644;2023-01-29T08:02:53;1.90;99.90
16076;DHT22;8142;48.242;11.644;2023-01-29T08:05:19;1.90;99.90
16076;DHT22;8142;48.242;11.644;2023-01-29T08:07:49;1.90;99.90
16076;DHT22;8142;48.242;11.644;2023-01-29T08:10:17;1.90;99.90
16076;DHT22;8142;48.242;11.644;2023-01-29T08:12:43;2.00;99.90
16076;DHT22;8142;48.242;11.644;2023-01-29T08:15:09;2.00;99.90
16076;DHT22;8142;48.242;11.644;2023-01-29T08:17:36;2.00;99.90
16076;DHT22;8142;48.242;11.644;2023-01-29T08:20:05;2.00;99.90
16076;DHT22;8142;48.242;11.644;2023-01-29T08:22:32;2.00;99.90
16076;DHT22;8142;48.242;11.644;2023-01-29T08:24:59;2.00;99.90
16076;DHT22;8142;48.242;11.644;2023-01-29T08:27:25;2.00;99.90
16076;DHT22;8142;48.242;11.644;2023-01-29T08:29:51;2.00;99.90
16076;DHT22;8142;48.242;11.644;2023-01-29T08:32:17;2.10;99.90
16076;DHT22;8142;48.242;11.644;2023-01-29T08:34:44;2.00;99.90
16076;DHT22;8142;48.242;11.644;2023-01-29T08:37:10;2.10;99.90
16076;DHT22;8142;48.242;11.644;2023-01-29T08:39:37;2.10;99.90
16076;DHT22;8142;48.242;11.644;2023-01-29T08:42:03;2.10;99.90
16076;DHT22;8142;48.242;11.644;2023-01-29T08:44:29;2.10;99.90
16076;DHT22;8142;48.242;11.644;2023-01-29T08:46:55;2.10;99.90
16076;DHT22;8142;48.242;11.644;2023-01-29T08:49:21;2.20;99.90
16076;DHT22;8142;48.242;11.644;2023-01-29T08:51:48;2.20;99.90
16076;DHT22;8142;48.242;11.644;2023-01-29T08:54:16;2.20;99.90
16076;DHT22;8142;48.242;11.644;2023-01-29T08:56:42;2.10;99.90
16076;DHT22;8142;48.242;11.644;2023-01-29T08:59:09;2.10;99.90
16076;DHT22;8142;48.242;11.644;2023-01-29T09:01:35;2.20;99.90
16076;DHT22;8142;48.242;11.644;2023-01-29T09:04:01;2.20;99.90
16076;DHT22;8142;48.242;11.644;2023-01-29T09:06:27;2.30;99.90
16076;DHT22;8142;48.242;11.644;2023-01-29T09:08:53;2.20;99.90
16076;DHT22;8142;48.242;11.644;2023-01-29T09:11:20;2.20;99.90
16076;DHT22;8142;48.242;11.644;2023-01-29T09:13:46;2.20;99.90
16076;DHT22;8142;48.242;11.644;2023-01-29T09:16:15;2.10;99.90
16076;DHT22;8142;48.242;11.644;2023-01-29T09:18:41;2.10;99.90
16076;DHT22;8142;48.242;11.644;2023-01-29T09:21:07;1.90;99.90
16076;DHT22;8142;48.242;11.644;2023-01-29T09:23:33;1.80;99.90
16076;DHT22;8142;48.242;11.644;2023-01-29T09:25:59;1.60;99.90
16076;DHT22;8142;48.242;11.644;2023-01-29T09:28:25;1.50;99.90
16076;DHT22;8142;48.242;11.644;2023-01-29T09:30:51;1.40;99.90
16076;DHT22;8142;48.242;11.644;2023-01-29T09:33:18;1.30;99.90
16076;DHT22;8142;48.242;11.644;2023-01-29T09:35:44;1.20;99.90
16076;DHT22;8142;48.242;11.644;2023-01-29T09:38:12;1.10;99.90
16076;DHT22;8142;48.242;11.644;2023-01-29T09:41:02;1.00;99.90
16076;DHT22;8142;48.242;11.644;2023-01-29T09:43:42;0.90;99.90
16076;DHT22;8142;48.242;11.644;2023-01-29T09:48:43;0.90;99.90
16076;DHT22;8142;48.242;11.644;2023-01-29T09:51:19;0.80;99.90
16076;DHT22;8142;48.242;11.644;2023-01-29T09:56:27;0.80;99.90
16076;DHT22;8142;48.242;11.644;2023-01-29T09:58:59;0.80;99.90
16076;DHT22;8142;48.242;11.644;2023-01-29T10:01:33;0.80;99.90
16076;DHT22;8142;48.242;11.644;2023-01-29T10:06:55;0.70;99.90
16076;DHT22;8142;48.242;11.644;2023-01-29T10:12:27;0.60;99.90
16076;DHT22;8142;48.242;11.644;2023-01-29T10:25:53;0.60;99.90
16076;DHT22;8142;48.242;11.644;2023-01-29T10:28:47;0.60;99.90
16076;DHT22;8142;48.242;11.644;2023-01-29T10:33:52;0.70;99.90
16076;DHT22;8142;48.242;11.644;2023-01-29T10:36:22;0.70;99.90
16076;DHT22;8142;48.242;11.644;2023-01-29T10:38:51;0.70;99.90
16076;DHT22;8142;48.242;11.644;2023-01-29T11:00:44;1.50;99.90
16076;DHT22;8142;48.242;11.644;2023-01-29T11:05:51;1.60;99.90
16076;DHT22;8142;48.242;11.644;2023-01-29T11:11:13;1.70;99.90
16076;DHT22;8142;48.242;11.644;2023-01-29T11:14:01;1.80;99.90
16076;DHT22;8142;48.242;11.644;2023-01-29T11:16:43;1.90;99.90
16076;DHT22;8142;48.242;11.644;2023-01-29T11:19:10;2.00;99.90
16076;DHT22;8142;48.242;11.644;2023-01-29T11:21:56;2.00;99.90
16076;DHT22;8142;48.242;11.644;2023-01-29T11:24:22;2.10;99.90
16076;DHT22;8142;48.242;11.644;2023-01-29T11:26:50;2.10;99.90
16076;DHT22;8142;48.242;11.644;2023-01-29T11:32:05;2.20;99.90
16076;DHT22;8142;48.242;11.644;2023-01-29T11:34:32;2.20;99.90
16076;DHT22;8142;48.242;11.644;2023-01-29T11:37:00;2.30;99.90
16076;DHT22;8142;48.242;11.644;2023-01-29T11:39:27;2.30;99.90
16076;DHT22;8142;48.242;11.644;2023-01-29T11:41:58;2.40;99.90
16076;DHT22;8142;48.242;11.644;2023-01-29T11:44:31;2.40;99.90
16076;DHT22;8142;48.242;11.644;2023-01-29T11:49:47;2.40;99.90
16076;DHT22;8142;48.242;11.644;2023-01-29T11:52:16;2.60;99.90
16076;DHT22;8142;48.242;11.644;2023-01-29T11:54:53;2.50;99.90
16076;DHT22;8142;48.242;11.644;2023-01-29T11:57:34;2.50;99.90
16076;DHT22;8142;48.242;11.644;2023-01-29T12:00:25;2.50;99.90
16076;DHT22;8142;48.242;11.644;2023-01-29T12:03:15;2.50;99.90
16076;DHT22;8142;48.242;11.644;2023-01-29T12:05:53;2.50;99.90
16076;DHT22;8142;48.242;11.644;2023-01-29T12:08:22;2.60;99.90
16076;DHT22;8142;48.242;11.644;2023-01-29T12:10:48;2.60;99.90
16076;DHT22;8142;48.242;11.644;2023-01-29T12:13:26;2.60;99.90
16076;DHT22;8142;48.242;11.644;2023-01-29T12:22:07;2.70;99.90
16076;DHT22;8142;48.242;11.644;2023-01-29T12:27:57;2.70;99.90
16076;DHT22;8142;48.242;11.644;2023-01-29T12:30:39;2.60;99.90
16076;DHT22;8142;48.242;11.644;2023-01-29T12:33:25;2.60;99.90
16076;DHT22;8142;48.242;11.644;2023-01-29T12:36:00;2.60;99.90
16076;DHT22;8142;48.242;11.644;2023-01-29T12:38:27;2.60;99.90
16076;DHT22;8142;48.242;11.644;2023-01-29T12:41:04;2.60;99.90
16076;DHT22;8142;48.242;11.644;2023-01-29T12:43:37;2.60;99.90
16076;DHT22;8142;48.242;11.644;2023-01-29T12:46:13;2.60;99.90
16076;DHT22;8142;48.242;11.644;2023-01-29T12:48:43;2.60;99.90
16076;DHT22;8142;48.242;11.644;2023-01-29T12:51:17;2.60;99.90
16076;DHT22;8142;48.242;11.644;2023-01-29T12:53:53;2.60;99.90
16076;DHT22;8142;48.242;11.644;2023-01-29T12:56:34;2.60;99.90
16076;DHT22;8142;48.242;11.644;2023-01-29T12:59:09;2.60;99.90
16076;DHT22;8142;48.242;11.644;2023-01-29T13:01:44;2.50;99.90
16076;DHT22;8142;48.242;11.644;2023-01-29T13:04:29;2.50;99.90
16076;DHT22;8142;48.242;11.644;2023-01-29T13:07:14;2.50;99.90
16076;DHT22;8142;48.242;11.644;2023-01-29T13:09:45;2.40;99.90
16076;DHT22;8142;48.242;11.644;2023-01-29T13:12:15;2.50;99.90
16076;DHT22;8142;48.242;11.644;2023-01-29T13:14:54;2.40;99.90
16076;DHT22;8142;48.242;11.644;2023-01-29T13:20:21;2.40;99.90
16076;DHT22;8142;48.242;11.644;2023-01-29T13:22:49;2.40;99.90
16076;DHT22;8142;48.242;11.644;2023-01-29T13:25:18;2.30;99.90
16076;DHT22;8142;48.242;11.644;2023-01-29T13:27:45;2.30;99.90
16076;DHT22;8142;48.242;11.644;2023-01-29T13:30:32;2.30;99.90
16076;DHT22;8142;48.242;11.644;2023-01-29T13:33:02;2.40;99.90
16076;DHT22;8142;48.242;11.644;2023-01-29T13:35:37;2.30;99.90
16076;DHT22;8142;48.242;11.644;2023-01-29T13:38:05;2.30;99.90
16076;DHT22;8142;48.242;11.644;2023-01-29T13:40:49;2.30;99.90
16076;DHT22;8142;48.242;11.644;2023-01-29T13:43:22;2.10;99.90
16076;DHT22;8142;48.242;11.644;2023-01-29T13:45:58;2.10;99.90
16076;DHT22;8142;48.242;11.644;2023-01-29T13:48:31;2.00;99.90
16076;DHT22;8142;48.242;11.644;2023-01-29T13:51:02;1.90;99.90
16076;DHT22;8142;48.242;11.644;2023-01-29T13:53:41;1.90;99.90
16076;DHT22;8142;48.242;11.644;2023-01-29T13:59:02;1.80;99.90
16076;DHT22;8142;48.242;11.644;2023-01-29T14:06:58;1.70;99.90
16076;DHT22;8142;48.242;11.644;2023-01-29T14:12:29;1.60;99.90
16076;DHT22;8142;48.242;11.644;2023-01-29T14:15:13;1.60;99.90
16076;DHT22;8142;48.242;11.644;2023-01-29T14:17:53;1.60;99.90
16076;DHT22;8142;48.242;11.644;2023-01-29T14:20:23;1.50;99.90
16076;DHT22;8142;48.242;11.644;2023-01-29T14:22:55;1.50;99.90
16076;DHT22;8142;48.242;11.644;2023-01-29T14:25:28;1.50;99.90
16076;DHT22;8142;48.242;11.644;2023-01-29T14:27:57;1.50;99.90
16076;DHT22;8142;48.242;11.644;2023-01-29T14:30:25;1.50;99.90
16076;DHT22;8142;48.242;11.644;2023-01-29T14:32:53;1.50;99.90
16076;DHT22;8142;48.242;11.644;2023-01-29T14:35:24;1.40;99.90
16076;DHT22;8142;48.242;11.644;2023-01-29T14:37:55;1.40;99.90
16076;DHT22;8142;48.242;11.644;2023-01-29T14:40:27;1.40;99.90
16076;DHT22;8142;48.242;11.644;2023-01-29T14:42:59;1.50;99.90
16076;DHT22;8142;48.242;11.644;2023-01-29T14:45:37;1.30;99.90
16076;DHT22;8142;48.242;11.644;2023-01-29T14:58:32;1.30;99.90
16076;DHT22;8142;48.242;11.644;2023-01-29T15:01:01;1.30;99.90
16076;DHT22;8142;48.242;11.644;2023-01-29T15:03:50;1.30;99.90
16076;DHT22;8142;48.242;11.644;2023-01-29T15:06:45;1.30;99.90
16076;DHT22;8142;48.242;11.644;2023-01-29T15:18:07;1.30;99.90
16076;DHT22;8142;48.242;11.644;2023-01-29T15:20:38;1.40;99.90
16076;DHT22;8142;48.242;11.644;2023-01-29T15:23:28;1.40;99.90
16076;DHT22;8142;48.242;11.644;2023-01-29T15:26:00;1.50;99.90
16076;DHT22;8142;48.242;11.644;2023-01-29T15:28:31;1.50;99.90
16076;DHT22;8142;48.242;11.644;2023-01-29T15:31:03;1.60;99.90
16076;DHT22;8142;48.242;11.644;2023-01-29T15:33:31;1.60;99.90
16076;DHT22;8142;48.242;11.644;2023-01-29T15:35:59;1.70;99.90
16076;DHT22;8142;48.242;11.644;2023-01-29T15:38:26;1.70;99.90
16076;DHT22;8142;48.242;11.644;2023-01-29T15:41:15;1.70;99.90
16076;DHT22;8142;48.242;11.644;2023-01-29T15:43:44;1.80;99.90
16076;DHT22;8142;48.242;11.644;2023-01-29T15:46:32;1.80;99.90
16076;DHT22;8142;48.242;11.644;2023-01-29T15:49:04;1.80;99.90
16076;DHT22;8142;48.242;11.644;2023-01-29T15:51:32;1.80;99.90
16076;DHT22;8142;48.242;11.644;2023-01-29T15:54:00;1.90;99.90
16076;DHT22;8142;48.242;11.644;2023-01-29T15:56:49;1.90;99.90
16076;DHT22;8142;48.242;11.644;2023-01-29T15:59:24;1.90;99.90
16076;DHT22;8142;48.242;11.644;2023-01-29T16:02:01;1.90;99.90
16076;DHT22;8142;48.242;11.644;2023-01-29T16:04:37;1.90;99.90
16076;DHT22;8142;48.242;11.644;2023-01-29T16:07:03;2.00;99.90
16076;DHT22;8142;48.242;11.644;2023-01-29T16:09:29;2.00;99.90
16076;DHT22;8142;48.242;11.644;2023-01-29T16:11:57;2.00;99.90
16076;DHT22;8142;48.242;11.644;2023-01-29T16:14:24;2.00;99.90
16076;DHT22;8142;48.242;11.644;2023-01-29T16:16:51;2.00;99.90
16076;DHT22;8142;48.242;11.644;2023-01-29T16:19:26;2.00;99.90
16076;DHT22;8142;48.242;11.644;2023-01-29T16:22:00;2.00;99.90
16076;DHT22;8142;48.242;11.644;2023-01-29T16:24:28;2.00;99.90
16076;DHT22;8142;48.242;11.644;2023-01-29T16:27:01;2.00;99.90
16076;DHT22;8142;48.242;11.644;2023-01-29T16:29:30;2.00;99.90
16076;DHT22;8142;48.242;11.644;2023-01-29T16:31:58;2.00;99.90
16076;DHT22;8142;48.242;11.644;2023-01-29T16:37:15;2.00;99.90
16076;DHT22;8142;48.242;11.644;2023-01-29T16:39:47;2.00;99.90
16076;DHT22;8142;48.242;11.644;2023-01-29T16:45:05;2.00;99.90
16076;DHT22;8142;48.242;11.644;2023-01-29T16:48:19;1.90;99.90
16076;DHT22;8142;48.242;11.644;2023-01-29T16:50:44;1.80;99.90
16076;DHT22;8142;48.242;11.644;2023-01-29T16:53:18;1.80;99.90
16076;DHT22;8142;48.242;11.644;2023-01-29T16:55:47;1.60;99.90
16076;DHT22;8142;48.242;11.644;2023-01-29T16:58:24;1.50;99.90
16076;DHT22;8142;48.242;11.644;2023-01-29T17:03:26;1.30;99.90
16076;DHT22;8142;48.242;11.644;2023-01-29T17:05:53;1.20;99.90
16076;DHT22;8142;48.242;11.644;2023-01-29T17:08:29;1.10;99.90
16076;DHT22;8142;48.242;11.644;2023-01-29T17:10:57;1.10;99.90
16076;DHT22;8142;48.242;11.644;2023-01-29T17:15:59;1.00;99.90
16076;DHT22;8142;48.242;11.644;2023-01-29T17:18:28;0.90;99.90
16076;DHT22;8142;48.242;11.644;2023-01-29T17:20:54;0.90;99.90
16076;DHT22;8142;48.242;11.644;2023-01-29T17:23:21;0.80;99.90
16076;DHT22;8142;48.242;11.644;2023-01-29T17:25:47;0.80;99.90
16076;DHT22;8142;48.242;11.644;2023-01-29T17:28:15;0.80;99.90
16076;DHT22;8142;48.242;11.644;2023-01-29T17:30:42;0.80;99.90
16076;DHT22;8142;48.242;11.644;2023-01-29T17:33:16;0.70;99.90
16076;DHT22;8142;48.242;11.644;2023-01-29T17:35:43;0.70;99.90
16076;DHT22;8142;48.242;11.644;2023-01-29T17:38:11;0.70;99.90
16076;DHT22;8142;48.242;11.644;2023-01-29T17:40:50;0.70;99.90
16076;DHT22;8142;48.242;11.644;2023-01-29T17:43:18;0.60;99.90
16076;DHT22;8142;48.242;11.644;2023-01-29T17:45:45;0.60;99.90
16076;DHT22;8142;48.242;11.644;2023-01-29T17:48:23;0.60;99.90
16076;DHT22;8142;48.242;11.644;2023-01-29T17:50:51;0.60;99.90
16076;DHT22;8142;48.242;11.644;2023-01-29T17:53:19;0.60;99.90
16076;DHT22;8142;48.242;11.644;2023-01-29T17:55:45;0.60;99.90
16076;DHT22;8142;48.242;11.644;2023-01-29T17:58:23;0.60;99.90
16076;DHT22;8142;48.242;11.644;2023-01-29T18:00:51;0.60;99.90
16076;DHT22;8142;48.242;11.644;2023-01-29T18:03:17;0.60;99.90
16076;DHT22;8142;48.242;11.644;2023-01-29T18:05:45;0.60;99.90
16076;DHT22;8142;48.242;11.644;2023-01-29T18:08:27;0.60;99.90
16076;DHT22;8142;48.242;11.644;2023-01-29T18:10:54;0.60;99.90
16076;DHT22;8142;48.242;11.644;2023-01-29T18:13:20;0.70;99.90
16076;DHT22;8142;48.242;11.644;2023-01-29T18:15:46;0.70;99.90
16076;DHT22;8142;48.242;11.644;2023-01-29T18:18:16;0.80;99.90
16076;DHT22;8142;48.242;11.644;2023-01-29T18:20:43;0.90;99.90
16076;DHT22;8142;48.242;11.644;2023-01-29T18:23:10;0.90;99.90
16076;DHT22;8142;48.242;11.644;2023-01-29T18:25:37;1.00;99.90
16076;DHT22;8142;48.242;11.644;2023-01-29T18:28:04;1.10;99.90
16076;DHT22;8142;48.242;11.644;2023-01-29T18:30:31;1.10;99.90
16076;DHT22;8142;48.242;11.644;2023-01-29T18:32:57;1.10;99.90
16076;DHT22;8142;48.242;11.644;2023-01-29T18:35:24;1.20;99.90
16076;DHT22;8142;48.242;11.644;2023-01-29T18:37:50;1.30;99.90
16076;DHT22;8142;48.242;11.644;2023-01-29T18:40:17;1.30;99.90
16076;DHT22;8142;48.242;11.644;2023-01-29T18:42:44;1.30;99.90
16076;DHT22;8142;48.242;11.644;2023-01-29T18:45:11;1.40;99.90
16076;DHT22;8142;48.242;11.644;2023-01-29T18:47:38;1.50;99.90
16076;DHT22;8142;48.242;11.644;2023-01-29T18:50:05;1.50;99.90
16076;DHT22;8142;48.242;11.644;2023-01-29T18:52:32;1.50;99.90
16076;DHT22;8142;48.242;11.644;2023-01-29T18:54:59;1.50;99.90